sensor_id;sensor_type;location;lat;lon;timestamp;P1;durP1;ratioP1;P2;durP2;ratioP2
15385;SDS011;7791;47.246;9.648;2023-06-10T00:00:07;7.77;;;5.97;;
15385;SDS011;7791;47.246;9.648;2023-06-10T00:02:41;8.43;;;6.30;;
15385;SDS011;7791;47.246;9.648;2023-06-10T00:05:15;7.33;;;6.13;;
15385;SDS011;7791;47.246;9.648;2023-06-10T00:07:55;10.17;;;6.50;;
15385;SDS011;7791;47.246;9.648;2023-06-10T00:10:22;7.40;;;5.77;;
15385;SDS011;7791;47.246;9.648;2023-06-10T00:15:48;10.73;;;6.37;;
15385;SDS011;7791;47.246;9.648;2023-06-10T00:18:17;14.57;;;7.90;;
15385;SDS011;7791;47.246;9.648;2023-06-10T00:21:00;9.07;;;6.70;;
15385;SDS011;7791;47.246;9.648;2023-06-10T00:23:35;9.93;;;6.33;;
15385;SDS011;7791;47.246;9.648;2023-06-10T00:26:07;7.10;;;6.03;;
15385;SDS011;7791;47.246;9.648;2023-06-10T00:28:48;32.00;;;14.30;;
15385;SDS011;7791;47.246;9.648;2023-06-10T00:31:19;11.67;;;7.40;;
15385;SDS011;7791;47.246;9.648;2023-06-10T00:34:01;8.97;;;6.80;;
15385;SDS011;7791;47.246;9.648;2023-06-10T00:36:31;8.93;;;6.30;;
15385;SDS011;7791;47.246;9.648;2023-06-10T00:39:12;8.47;;;6.93;;
15385;SDS011;7791;47.246;9.648;2023-06-10T00:42:07;8.10;;;6.57;;
15385;SDS011;7791;47.246;9.648;2023-06-10T00:44:58;12.17;;;7.30;;
15385;SDS011;7791;47.246;9.648;2023-06-10T00:47:40;68.10;;;23.57;;
15385;SDS011;7791;47.246;9.648;2023-06-10T00:50:19;22.53;;;10.27;;
15385;SDS011;7791;47.246;9.648;2023-06-10T00:52:50;15.77;;;8.10;;
15385;SDS011;7791;47.246;9.648;2023-06-10T00:55:27;11.60;;;7.43;;
15385;SDS011;7791;47.246;9.648;2023-06-10T00:58:02;10.17;;;7.43;;
15385;SDS011;7791;47.246;9.648;2023-06-10T01:00:34;8.40;;;7.17;;
15385;SDS011;7791;47.246;9.648;2023-06-10T01:03:05;9.17;;;7.20;;
15385;SDS011;7791;47.246;9.648;2023-06-10T01:05:38;10.23;;;7.77;;
15385;SDS011;7791;47.246;9.648;2023-06-10T01:08:15;56.23;;;20.60;;
15385;SDS011;7791;47.246;9.648;2023-06-10T01:10:57;38.07;;;16.33;;
15385;SDS011;7791;47.246;9.648;2023-06-10T01:13:38;16.60;;;9.67;;
15385;SDS011;7791;47.246;9.648;2023-06-10T01:16:08;14.57;;;7.67;;
15385;SDS011;7791;47.246;9.648;2023-06-10T01:18:44;9.50;;;7.00;;
15385;SDS011;7791;47.246;9.648;2023-06-10T01:21:29;8.53;;;6.50;;
15385;SDS011;7791;47.246;9.648;2023-06-10T01:24:14;9.83;;;7.67;;
15385;SDS011;7791;47.246;9.648;2023-06-10T01:26:45;9.80;;;7.73;;
15385;SDS011;7791;47.246;9.648;2023-06-10T01:29:25;9.63;;;7.17;;
15385;SDS011;7791;47.246;9.648;2023-06-10T01:32:10;17.43;;;9.93;;
15385;SDS011;7791;47.246;9.648;2023-06-10T01:34:51;21.53;;;11.20;;
15385;SDS011;7791;47.246;9.648;2023-06-10T01:37:30;20.30;;;9.47;;
15385;SDS011;7791;47.246;9.648;2023-06-10T01:40:17;14.20;;;8.83;;
15385;SDS011;7791;47.246;9.648;2023-06-10T01:42:49;16.73;;;9.13;;
15385;SDS011;7791;47.246;9.648;2023-06-10T01:45:23;8.63;;;7.40;;
15385;SDS011;7791;47.246;9.648;2023-06-10T01:48:07;11.40;;;7.57;;
15385;SDS011;7791;47.246;9.648;2023-06-10T01:53:21;17.57;;;10.13;;
15385;SDS011;7791;47.246;9.648;2023-06-10T01:58:38;27.03;;;12.93;;
15385;SDS011;7791;47.246;9.648;2023-06-10T02:01:09;20.67;;;12.60;;
15385;SDS011;7791;47.246;9.648;2023-06-10T02:03:42;14.30;;;9.20;;
15385;SDS011;7791;47.246;9.648;2023-06-10T02:06:26;12.17;;;8.13;;
15385;SDS011;7791;47.246;9.648;2023-06-10T02:09:01;11.33;;;7.97;;
15385;SDS011;7791;47.246;9.648;2023-06-10T02:11:43;13.43;;;8.67;;
15385;SDS011;7791;47.246;9.648;2023-06-10T02:14:28;12.77;;;8.90;;
15385;SDS011;7791;47.246;9.648;2023-06-10T02:17:06;15.27;;;9.80;;
15385;SDS011;7791;47.246;9.648;2023-06-10T02:19:42;60.77;;;23.90;;
15385;SDS011;7791;47.246;9.648;2023-06-10T02:22:34;11.73;;;9.27;;
15385;SDS011;7791;47.246;9.648;2023-06-10T02:25:04;24.37;;;11.50;;
15385;SDS011;7791;47.246;9.648;2023-06-10T02:27:32;14.50;;;10.00;;
15385;SDS011;7791;47.246;9.648;2023-06-10T02:30:01;15.77;;;9.90;;
15385;SDS011;7791;47.246;9.648;2023-06-10T02:32:38;10.43;;;8.67;;
15385;SDS011;7791;47.246;9.648;2023-06-10T02:35:11;14.50;;;9.00;;
15385;SDS011;7791;47.246;9.648;2023-06-10T02:37:41;11.70;;;8.40;;
15385;SDS011;7791;47.246;9.648;2023-06-10T02:40:21;15.67;;;8.33;;
15385;SDS011;7791;47.246;9.648;2023-06-10T02:42:52;18.43;;;10.33;;
15385;SDS011;7791;47.246;9.648;2023-06-10T02:45:47;18.67;;;11.43;;
15385;SDS011;7791;47.246;9.648;2023-06-10T02:50:59;22.87;;;13.90;;
15385;SDS011;7791;47.246;9.648;2023-06-10T02:56:21;14.27;;;9.00;;
15385;SDS011;7791;47.246;9.648;2023-06-10T02:58:54;11.77;;;8.40;;
15385;SDS011;7791;47.246;9.648;2023-06-10T03:04:18;13.63;;;9.10;;
15385;SDS011;7791;47.246;9.648;2023-06-10T03:06:54;55.93;;;22.63;;
15385;SDS011;7791;47.246;9.648;2023-06-10T03:09:24;70.70;;;26.53;;
15385;SDS011;7791;47.246;9.648;2023-06-10T03:11:58;51.27;;;19.20;;
15385;SDS011;7791;47.246;9.648;2023-06-10T03:14:31;50.73;;;20.53;;
15385;SDS011;7791;47.246;9.648;2023-06-10T03:17:12;23.40;;;11.57;;
15385;SDS011;7791;47.246;9.648;2023-06-10T03:19:42;16.33;;;10.30;;
15385;SDS011;7791;47.246;9.648;2023-06-10T03:22:10;17.27;;;10.43;;
15385;SDS011;7791;47.246;9.648;2023-06-10T03:24:39;15.43;;;10.10;;
15385;SDS011;7791;47.246;9.648;2023-06-10T03:27:21;11.70;;;9.00;;
15385;SDS011;7791;47.246;9.648;2023-06-10T03:29:54;14.60;;;9.37;;
15385;SDS011;7791;47.246;9.648;2023-06-10T03:35:07;19.07;;;10.30;;
15385;SDS011;7791;47.246;9.648;2023-06-10T03:37:36;15.57;;;10.40;;
15385;SDS011;7791;47.246;9.648;2023-06-10T03:40:03;14.90;;;10.20;;
15385;SDS011;7791;47.246;9.648;2023-06-10T03:42:42;18.03;;;10.07;;
15385;SDS011;7791;47.246;9.648;2023-06-10T03:45:08;27.27;;;12.20;;
15385;SDS011;7791;47.246;9.648;2023-06-10T03:47:45;67.30;;;23.83;;
15385;SDS011;7791;47.246;9.648;2023-06-10T03:50:21;20.83;;;11.33;;
15385;SDS011;7791;47.246;9.648;2023-06-10T03:53:02;17.63;;;10.10;;
15385;SDS011;7791;47.246;9.648;2023-06-10T03:55:32;12.03;;;9.37;;
15385;SDS011;7791;47.246;9.648;2023-06-10T03:58:06;12.03;;;8.17;;
15385;SDS011;7791;47.246;9.648;2023-06-10T04:00:36;12.63;;;8.80;;
15385;SDS011;7791;47.246;9.648;2023-06-10T04:03:14;13.47;;;9.37;;
15385;SDS011;7791;47.246;9.648;2023-06-10T04:05:42;14.50;;;9.67;;
15385;SDS011;7791;47.246;9.648;2023-06-10T04:08:21;14.77;;;9.53;;
15385;SDS011;7791;47.246;9.648;2023-06-10T04:10:53;11.90;;;9.33;;
15385;SDS011;7791;47.246;9.648;2023-06-10T04:13:42;31.77;;;15.70;;
15385;SDS011;7791;47.246;9.648;2023-06-10T04:16:11;16.77;;;9.93;;
15385;SDS011;7791;47.246;9.648;2023-06-10T04:18:50;13.57;;;9.37;;
15385;SDS011;7791;47.246;9.648;2023-06-10T04:21:26;14.07;;;8.40;;
15385;SDS011;7791;47.246;9.648;2023-06-10T04:24:01;14.43;;;10.07;;
15385;SDS011;7791;47.246;9.648;2023-06-10T04:26:43;20.27;;;12.07;;
15385;SDS011;7791;47.246;9.648;2023-06-10T04:29:34;15.10;;;10.17;;
15385;SDS011;7791;47.246;9.648;2023-06-10T04:32:04;17.47;;;10.70;;
15385;SDS011;7791;47.246;9.648;2023-06-10T04:34:49;18.03;;;11.93;;
15385;SDS011;7791;47.246;9.648;2023-06-10T04:37:16;15.63;;;11.37;;
15385;SDS011;7791;47.246;9.648;2023-06-10T04:39:49;17.73;;;11.17;;
15385;SDS011;7791;47.246;9.648;2023-06-10T04:42:35;15.80;;;10.70;;
15385;SDS011;7791;47.246;9.648;2023-06-10T04:45:14;14.87;;;10.97;;
15385;SDS011;7791;47.246;9.648;2023-06-10T04:47:50;20.30;;;12.10;;
15385;SDS011;7791;47.246;9.648;2023-06-10T04:50:26;18.87;;;10.07;;
15385;SDS011;7791;47.246;9.648;2023-06-10T04:53:07;17.60;;;10.47;;
15385;SDS011;7791;47.246;9.648;2023-06-10T04:55:47;17.93;;;10.90;;
15385;SDS011;7791;47.246;9.648;2023-06-10T04:58:26;17.90;;;11.60;;
15385;SDS011;7791;47.246;9.648;2023-06-10T05:01:01;18.47;;;10.07;;
15385;SDS011;7791;47.246;9.648;2023-06-10T05:03:47;14.53;;;8.97;;
15385;SDS011;7791;47.246;9.648;2023-06-10T05:06:15;10.20;;;7.60;;
15385;SDS011;7791;47.246;9.648;2023-06-10T05:08:45;10.03;;;7.13;;
15385;SDS011;7791;47.246;9.648;2023-06-10T05:11:13;11.07;;;6.90;;
15385;SDS011;7791;47.246;9.648;2023-06-10T05:13:49;8.80;;;7.37;;
15385;SDS011;7791;47.246;9.648;2023-06-10T05:16:30;7.33;;;6.50;;
15385;SDS011;7791;47.246;9.648;2023-06-10T05:19:08;7.83;;;6.27;;
15385;SDS011;7791;47.246;9.648;2023-06-10T05:21:50;7.55;;;6.35;;
15385;SDS011;7791;47.246;9.648;2023-06-10T05:24:23;8.07;;;6.20;;
15385;SDS011;7791;47.246;9.648;2023-06-10T05:26:55;11.85;;;7.28;;
15385;SDS011;7791;47.246;9.648;2023-06-10T05:29:32;8.82;;;7.18;;
15385;SDS011;7791;47.246;9.648;2023-06-10T05:32:09;7.07;;;6.38;;
15385;SDS011;7791;47.246;9.648;2023-06-10T05:34:45;8.13;;;6.15;;
15385;SDS011;7791;47.246;9.648;2023-06-10T05:37:24;8.10;;;6.07;;
15385;SDS011;7791;47.246;9.648;2023-06-10T05:40:01;10.32;;;6.65;;
15385;SDS011;7791;47.246;9.648;2023-06-10T05:42:34;14.90;;;8.68;;
15385;SDS011;7791;47.246;9.648;2023-06-10T05:45:13;14.60;;;8.88;;
15385;SDS011;7791;47.246;9.648;2023-06-10T05:47:40;7.57;;;6.75;;
15385;SDS011;7791;47.246;9.648;2023-06-10T05:50:16;8.25;;;6.70;;
15385;SDS011;7791;47.246;9.648;2023-06-10T05:52:49;13.55;;;8.20;;
15385;SDS011;7791;47.246;9.648;2023-06-10T05:55:21;11.75;;;7.22;;
15385;SDS011;7791;47.246;9.648;2023-06-10T05:58:11;14.23;;;8.50;;
15385;SDS011;7791;47.246;9.648;2023-06-10T06:00:44;9.25;;;6.70;;
15385;SDS011;7791;47.246;9.648;2023-06-10T06:03:20;8.25;;;6.90;;
15385;SDS011;7791;47.246;9.648;2023-06-10T06:05:52;8.10;;;7.07;;
15385;SDS011;7791;47.246;9.648;2023-06-10T06:08:25;8.98;;;7.60;;
15385;SDS011;7791;47.246;9.648;2023-06-10T06:10:59;7.57;;;6.87;;
15385;SDS011;7791;47.246;9.648;2023-06-10T06:13:33;10.47;;;7.37;;
15385;SDS011;7791;47.246;9.648;2023-06-10T06:16:09;10.52;;;7.10;;
15385;SDS011;7791;47.246;9.648;2023-06-10T06:18:43;7.97;;;6.90;;
15385;SDS011;7791;47.246;9.648;2023-06-10T06:21:15;10.13;;;7.43;;
15385;SDS011;7791;47.246;9.648;2023-06-10T06:23:49;9.65;;;7.38;;
15385;SDS011;7791;47.246;9.648;2023-06-10T06:26:35;9.23;;;7.53;;
15385;SDS011;7791;47.246;9.648;2023-06-10T06:29:12;11.48;;;7.55;;
15385;SDS011;7791;47.246;9.648;2023-06-10T06:31:55;11.60;;;8.25;;
15385;SDS011;7791;47.246;9.648;2023-06-10T06:34:22;10.85;;;6.97;;
15385;SDS011;7791;47.246;9.648;2023-06-10T06:36:55;8.20;;;6.80;;
15385;SDS011;7791;47.246;9.648;2023-06-10T06:39:26;9.77;;;6.38;;
15385;SDS011;7791;47.246;9.648;2023-06-10T06:42:00;7.88;;;6.20;;
15385;SDS011;7791;47.246;9.648;2023-06-10T06:44:28;7.97;;;6.47;;
15385;SDS011;7791;47.246;9.648;2023-06-10T06:47:02;8.18;;;6.72;;
15385;SDS011;7791;47.246;9.648;2023-06-10T06:49:40;7.68;;;5.97;;
15385;SDS011;7791;47.246;9.648;2023-06-10T06:52:11;10.52;;;6.97;;
15385;SDS011;7791;47.246;9.648;2023-06-10T06:54:41;12.15;;;7.13;;
15385;SDS011;7791;47.246;9.648;2023-06-10T07:00:04;12.88;;;7.75;;
15385;SDS011;7791;47.246;9.648;2023-06-10T07:02:45;12.10;;;6.57;;
15385;SDS011;7791;47.246;9.648;2023-06-10T07:05:24;9.93;;;6.35;;
15385;SDS011;7791;47.246;9.648;2023-06-10T07:07:54;9.93;;;6.40;;
15385;SDS011;7791;47.246;9.648;2023-06-10T07:13:31;7.93;;;6.68;;
15385;SDS011;7791;47.246;9.648;2023-06-10T07:16:02;10.95;;;7.43;;
15385;SDS011;7791;47.246;9.648;2023-06-10T07:18:28;9.88;;;7.50;;
15385;SDS011;7791;47.246;9.648;2023-06-10T07:20:59;8.13;;;6.95;;
15385;SDS011;7791;47.246;9.648;2023-06-10T07:23:29;8.20;;;7.20;;
15385;SDS011;7791;47.246;9.648;2023-06-10T07:26:02;10.63;;;7.45;;
15385;SDS011;7791;47.246;9.648;2023-06-10T07:28:33;10.43;;;7.97;;
15385;SDS011;7791;47.246;9.648;2023-06-10T07:31:10;10.38;;;7.93;;
15385;SDS011;7791;47.246;9.648;2023-06-10T07:33:49;9.05;;;7.65;;
15385;SDS011;7791;47.246;9.648;2023-06-10T07:36:19;10.65;;;8.23;;
15385;SDS011;7791;47.246;9.648;2023-06-10T07:39:04;9.15;;;8.15;;
15385;SDS011;7791;47.246;9.648;2023-06-10T07:41:30;10.10;;;7.53;;
15385;SDS011;7791;47.246;9.648;2023-06-10T07:43:56;9.68;;;7.40;;
15385;SDS011;7791;47.246;9.648;2023-06-10T07:46:29;10.68;;;8.10;;
15385;SDS011;7791;47.246;9.648;2023-06-10T07:49:02;15.45;;;8.13;;
15385;SDS011;7791;47.246;9.648;2023-06-10T07:51:40;9.80;;;7.28;;
15385;SDS011;7791;47.246;9.648;2023-06-10T07:56:56;8.88;;;7.97;;
15385;SDS011;7791;47.246;9.648;2023-06-10T07:59:28;10.70;;;7.07;;
15385;SDS011;7791;47.246;9.648;2023-06-10T08:02:03;9.13;;;7.28;;
15385;SDS011;7791;47.246;9.648;2023-06-10T08:04:36;8.77;;;7.50;;
15385;SDS011;7791;47.246;9.648;2023-06-10T08:07:32;9.25;;;8.20;;
15385;SDS011;7791;47.246;9.648;2023-06-10T08:10:06;9.80;;;7.50;;
15385;SDS011;7791;47.246;9.648;2023-06-10T08:12:42;9.88;;;7.07;;
15385;SDS011;7791;47.246;9.648;2023-06-10T08:15:14;10.88;;;7.40;;
15385;SDS011;7791;47.246;9.648;2023-06-10T08:17:45;8.57;;;7.68;;
15385;SDS011;7791;47.246;9.648;2023-06-10T08:20:17;11.65;;;8.13;;
15385;SDS011;7791;47.246;9.648;2023-06-10T08:22:53;9.35;;;7.97;;
15385;SDS011;7791;47.246;9.648;2023-06-10T08:25:25;9.52;;;8.43;;
15385;SDS011;7791;47.246;9.648;2023-06-10T08:28:05;10.77;;;8.77;;
15385;SDS011;7791;47.246;9.648;2023-06-10T08:30:40;10.40;;;8.75;;
15385;SDS011;7791;47.246;9.648;2023-06-10T08:36:01;11.00;;;8.13;;
15385;SDS011;7791;47.246;9.648;2023-06-10T08:38:51;8.88;;;7.60;;
15385;SDS011;7791;47.246;9.648;2023-06-10T08:41:28;7.60;;;6.80;;
15385;SDS011;7791;47.246;9.648;2023-06-10T08:44:16;7.78;;;6.57;;
15385;SDS011;7791;47.246;9.648;2023-06-10T08:46:47;7.80;;;7.00;;
15385;SDS011;7791;47.246;9.648;2023-06-10T08:49:17;10.30;;;7.30;;
15385;SDS011;7791;47.246;9.648;2023-06-10T08:51:51;9.30;;;6.90;;
15385;SDS011;7791;47.246;9.648;2023-06-10T08:54:28;12.20;;;8.43;;
15385;SDS011;7791;47.246;9.648;2023-06-10T08:57:04;8.98;;;7.18;;
15385;SDS011;7791;47.246;9.648;2023-06-10T08:59:40;14.02;;;8.02;;
15385;SDS011;7791;47.246;9.648;2023-06-10T09:02:17;50.20;;;15.07;;
15385;SDS011;7791;47.246;9.648;2023-06-10T09:07:45;9.63;;;7.32;;
15385;SDS011;7791;47.246;9.648;2023-06-10T09:10:14;7.57;;;6.88;;
15385;SDS011;7791;47.246;9.648;2023-06-10T09:12:42;12.13;;;8.07;;
15385;SDS011;7791;47.246;9.648;2023-06-10T09:15:19;8.98;;;8.07;;
15385;SDS011;7791;47.246;9.648;2023-06-10T09:17:52;12.13;;;8.50;;
15385;SDS011;7791;47.246;9.648;2023-06-10T09:20:22;10.02;;;7.40;;
15385;SDS011;7791;47.246;9.648;2023-06-10T09:23:05;7.88;;;7.07;;
15385;SDS011;7791;47.246;9.648;2023-06-10T09:25:44;8.98;;;7.57;;
15385;SDS011;7791;47.246;9.648;2023-06-10T09:28:25;10.02;;;7.63;;
15385;SDS011;7791;47.246;9.648;2023-06-10T09:31:11;8.57;;;7.70;;
15385;SDS011;7791;47.246;9.648;2023-06-10T09:33:44;8.88;;;7.75;;
15385;SDS011;7791;47.246;9.648;2023-06-10T09:36:20;10.63;;;7.93;;
15385;SDS011;7791;47.246;9.648;2023-06-10T09:38:56;11.23;;;7.93;;
15385;SDS011;7791;47.246;9.648;2023-06-10T09:41:34;10.85;;;8.15;;
15385;SDS011;7791;47.246;9.648;2023-06-10T09:44:05;9.75;;;8.80;;
15385;SDS011;7791;47.246;9.648;2023-06-10T09:46:41;9.05;;;8.18;;
15385;SDS011;7791;47.246;9.648;2023-06-10T09:49:15;11.52;;;8.95;;
15385;SDS011;7791;47.246;9.648;2023-06-10T09:54:35;10.27;;;8.00;;
15385;SDS011;7791;47.246;9.648;2023-06-10T09:57:22;10.02;;;9.02;;
15385;SDS011;7791;47.246;9.648;2023-06-10T10:02:46;10.95;;;8.35;;
15385;SDS011;7791;47.246;9.648;2023-06-10T10:05:16;9.63;;;8.25;;
15385;SDS011;7791;47.246;9.648;2023-06-10T10:07:45;9.65;;;7.90;;
15385;SDS011;7791;47.246;9.648;2023-06-10T10:10:20;10.50;;;8.50;;
15385;SDS011;7791;47.246;9.648;2023-06-10T10:12:53;10.63;;;8.02;;
15385;SDS011;7791;47.246;9.648;2023-06-10T10:15:31;11.07;;;7.65;;
15385;SDS011;7791;47.246;9.648;2023-06-10T10:18:02;9.15;;;8.25;;
15385;SDS011;7791;47.246;9.648;2023-06-10T10:20:40;11.52;;;8.38;;
15385;SDS011;7791;47.246;9.648;2023-06-10T10:23:16;9.48;;;8.02;;
15385;SDS011;7791;47.246;9.648;2023-06-10T10:26:09;11.20;;;7.88;;
15385;SDS011;7791;47.246;9.648;2023-06-10T10:31:34;9.52;;;7.72;;
15385;SDS011;7791;47.246;9.648;2023-06-10T10:34:12;8.68;;;7.60;;
15385;SDS011;7791;47.246;9.648;2023-06-10T10:36:56;10.35;;;7.43;;
15385;SDS011;7791;47.246;9.648;2023-06-10T10:39:35;8.18;;;6.53;;
15385;SDS011;7791;47.246;9.648;2023-06-10T10:42:06;8.07;;;7.28;;
15385;SDS011;7791;47.246;9.648;2023-06-10T10:44:42;8.15;;;6.85;;
15385;SDS011;7791;47.246;9.648;2023-06-10T10:47:18;9.25;;;6.90;;
15385;SDS011;7791;47.246;9.648;2023-06-10T10:49:56;8.60;;;6.50;;
15385;SDS011;7791;47.246;9.648;2023-06-10T10:52:51;9.15;;;6.70;;
15385;SDS011;7791;47.246;9.648;2023-06-10T10:55:35;7.35;;;6.50;;
15385;SDS011;7791;47.246;9.648;2023-06-10T10:58:02;7.85;;;6.57;;
15385;SDS011;7791;47.246;9.648;2023-06-10T11:03:41;10.95;;;6.13;;
15385;SDS011;7791;47.246;9.648;2023-06-10T11:06:13;9.10;;;5.80;;
15385;SDS011;7791;47.246;9.648;2023-06-10T11:08:46;7.00;;;5.90;;
15385;SDS011;7791;47.246;9.648;2023-06-10T11:11:18;7.25;;;6.40;;
15385;SDS011;7791;47.246;9.648;2023-06-10T11:13:57;7.50;;;6.60;;
15385;SDS011;7791;47.246;9.648;2023-06-10T11:16:41;7.10;;;6.40;;
15385;SDS011;7791;47.246;9.648;2023-06-10T11:22:15;6.88;;;5.78;;
15385;SDS011;7791;47.246;9.648;2023-06-10T11:24:44;7.25;;;6.40;;
15385;SDS011;7791;47.246;9.648;2023-06-10T11:27:18;7.68;;;6.88;;
15385;SDS011;7791;47.246;9.648;2023-06-10T11:33:02;6.85;;;6.15;;
15385;SDS011;7791;47.246;9.648;2023-06-10T11:35:30;6.20;;;5.60;;
15385;SDS011;7791;47.246;9.648;2023-06-10T11:37:55;8.43;;;6.70;;
15385;SDS011;7791;47.246;9.648;2023-06-10T11:43:13;9.52;;;5.93;;
15385;SDS011;7791;47.246;9.648;2023-06-10T11:45:40;8.55;;;5.40;;
15385;SDS011;7791;47.246;9.648;2023-06-10T11:48:14;7.07;;;5.68;;
15385;SDS011;7791;47.246;9.648;2023-06-10T11:50:53;7.03;;;5.60;;
15385;SDS011;7791;47.246;9.648;2023-06-10T11:53:23;5.78;;;5.22;;
15385;SDS011;7791;47.246;9.648;2023-06-10T11:56:02;15.98;;;6.05;;
15385;SDS011;7791;47.246;9.648;2023-06-10T11:58:33;7.43;;;5.70;;
15385;SDS011;7791;47.246;9.648;2023-06-10T12:01:09;7.95;;;5.75;;
15385;SDS011;7791;47.246;9.648;2023-06-10T12:03:58;7.70;;;5.72;;
15385;SDS011;7791;47.246;9.648;2023-06-10T12:06:43;6.43;;;5.63;;
15385;SDS011;7791;47.246;9.648;2023-06-10T12:09:25;5.93;;;5.43;;
15385;SDS011;7791;47.246;9.648;2023-06-10T12:12:00;8.85;;;5.88;;
15385;SDS011;7791;47.246;9.648;2023-06-10T12:20:32;6.43;;;5.78;;
15385;SDS011;7791;47.246;9.648;2023-06-10T12:23:10;7.75;;;5.50;;
15385;SDS011;7791;47.246;9.648;2023-06-10T12:25:55;8.15;;;5.57;;
15385;SDS011;7791;47.246;9.648;2023-06-10T12:28:25;6.18;;;5.05;;
15385;SDS011;7791;47.246;9.648;2023-06-10T12:31:07;6.72;;;5.47;;
15385;SDS011;7791;47.246;9.648;2023-06-10T12:33:35;7.78;;;5.35;;
15385;SDS011;7791;47.246;9.648;2023-06-10T12:36:09;7.82;;;5.65;;
15385;SDS011;7791;47.246;9.648;2023-06-10T12:38:46;6.72;;;5.30;;
15385;SDS011;7791;47.246;9.648;2023-06-10T12:41:18;8.00;;;5.93;;
15385;SDS011;7791;47.246;9.648;2023-06-10T12:43:51;5.82;;;5.25;;
15385;SDS011;7791;47.246;9.648;2023-06-10T12:46:22;6.78;;;5.40;;
15385;SDS011;7791;47.246;9.648;2023-06-10T12:49:11;8.35;;;5.75;;
15385;SDS011;7791;47.246;9.648;2023-06-10T12:52:09;6.40;;;5.50;;
15385;SDS011;7791;47.246;9.648;2023-06-10T12:54:53;9.25;;;5.43;;
15385;SDS011;7791;47.246;9.648;2023-06-10T12:57:24;7.35;;;6.43;;
15385;SDS011;7791;47.246;9.648;2023-06-10T13:00:03;6.13;;;5.32;;
15385;SDS011;7791;47.246;9.648;2023-06-10T13:02:42;7.72;;;6.05;;
15385;SDS011;7791;47.246;9.648;2023-06-10T13:05:20;7.07;;;5.90;;
15385;SDS011;7791;47.246;9.648;2023-06-10T13:07:49;7.38;;;5.78;;
15385;SDS011;7791;47.246;9.648;2023-06-10T13:10:20;6.90;;;6.30;;
15385;SDS011;7791;47.246;9.648;2023-06-10T13:15:48;7.28;;;6.28;;
15385;SDS011;7791;47.246;9.648;2023-06-10T13:18:24;6.93;;;6.10;;
15385;SDS011;7791;47.246;9.648;2023-06-10T13:20:57;7.55;;;6.43;;
15385;SDS011;7791;47.246;9.648;2023-06-10T13:23:29;6.85;;;6.25;;
15385;SDS011;7791;47.246;9.648;2023-06-10T13:26:07;7.90;;;6.47;;
15385;SDS011;7791;47.246;9.648;2023-06-10T13:28:40;9.02;;;6.00;;
15385;SDS011;7791;47.246;9.648;2023-06-10T13:31:11;8.23;;;5.90;;
15385;SDS011;7791;47.246;9.648;2023-06-10T13:33:50;8.50;;;6.05;;
15385;SDS011;7791;47.246;9.648;2023-06-10T13:36:20;6.15;;;5.53;;
15385;SDS011;7791;47.246;9.648;2023-06-10T13:38:47;6.57;;;5.85;;
15385;SDS011;7791;47.246;9.648;2023-06-10T13:41:14;6.68;;;5.95;;
15385;SDS011;7791;47.246;9.648;2023-06-10T13:43:43;6.40;;;5.68;;
15385;SDS011;7791;47.246;9.648;2023-06-10T13:46:11;9.05;;;5.95;;
15385;SDS011;7791;47.246;9.648;2023-06-10T13:48:44;9.52;;;6.18;;
15385;SDS011;7791;47.246;9.648;2023-06-10T13:51:35;5.88;;;5.38;;
15385;SDS011;7791;47.246;9.648;2023-06-10T13:54:18;8.07;;;5.57;;
15385;SDS011;7791;47.246;9.648;2023-06-10T13:57:00;6.80;;;5.55;;
15385;SDS011;7791;47.246;9.648;2023-06-10T13:59:48;6.20;;;5.60;;
15385;SDS011;7791;47.246;9.648;2023-06-10T14:02:29;6.72;;;5.50;;
15385;SDS011;7791;47.246;9.648;2023-06-10T14:05:02;6.78;;;5.80;;
15385;SDS011;7791;47.246;9.648;2023-06-10T14:07:31;8.75;;;5.60;;
15385;SDS011;7791;47.246;9.648;2023-06-10T14:10:06;9.55;;;5.78;;
15385;SDS011;7791;47.246;9.648;2023-06-10T14:12:39;6.07;;;5.47;;
15385;SDS011;7791;47.246;9.648;2023-06-10T14:15:11;7.88;;;5.13;;
15385;SDS011;7791;47.246;9.648;2023-06-10T14:17:44;6.53;;;5.22;;
15385;SDS011;7791;47.246;9.648;2023-06-10T14:20:13;5.57;;;5.07;;
15385;SDS011;7791;47.246;9.648;2023-06-10T14:22:48;6.22;;;5.20;;
15385;SDS011;7791;47.246;9.648;2023-06-10T14:25:16;8.32;;;5.20;;
15385;SDS011;7791;47.246;9.648;2023-06-10T14:27:47;6.32;;;5.03;;
15385;SDS011;7791;47.246;9.648;2023-06-10T14:30:15;5.40;;;4.90;;
15385;SDS011;7791;47.246;9.648;2023-06-10T14:32:41;5.47;;;4.97;;
15385;SDS011;7791;47.246;9.648;2023-06-10T14:35:11;5.65;;;4.78;;
15385;SDS011;7791;47.246;9.648;2023-06-10T14:37:40;5.68;;;5.18;;
15385;SDS011;7791;47.246;9.648;2023-06-10T14:40:29;5.63;;;4.78;;
15385;SDS011;7791;47.246;9.648;2023-06-10T14:43:09;7.60;;;4.80;;
15385;SDS011;7791;47.246;9.648;2023-06-10T14:45:45;4.90;;;4.40;;
15385;SDS011;7791;47.246;9.648;2023-06-10T14:48:20;5.13;;;4.63;;
15385;SDS011;7791;47.246;9.648;2023-06-10T14:50:48;5.82;;;4.88;;
15385;SDS011;7791;47.246;9.648;2023-06-10T14:53:30;6.10;;;4.93;;
15385;SDS011;7791;47.246;9.648;2023-06-10T14:56:10;8.70;;;5.00;;
15385;SDS011;7791;47.246;9.648;2023-06-10T14:58:45;5.07;;;4.57;;
15385;SDS011;7791;47.246;9.648;2023-06-10T15:01:27;5.78;;;3.88;;
15385;SDS011;7791;47.246;9.648;2023-06-10T15:03:55;8.27;;;3.90;;
15385;SDS011;7791;47.246;9.648;2023-06-10T15:06:33;7.50;;;3.90;;
15385;SDS011;7791;47.246;9.648;2023-06-10T15:09:05;10.35;;;4.38;;
15385;SDS011;7791;47.246;9.648;2023-06-10T15:11:36;17.88;;;4.85;;
15385;SDS011;7791;47.246;9.648;2023-06-10T15:14:04;8.00;;;4.47;;
15385;SDS011;7791;47.246;9.648;2023-06-10T15:16:42;6.18;;;4.32;;
15385;SDS011;7791;47.246;9.648;2023-06-10T15:19:23;19.70;;;5.55;;
15385;SDS011;7791;47.246;9.648;2023-06-10T15:21:59;20.42;;;5.55;;
15385;SDS011;7791;47.246;9.648;2023-06-10T15:24:29;9.27;;;5.20;;
15385;SDS011;7791;47.246;9.648;2023-06-10T15:26:58;6.38;;;4.72;;
15385;SDS011;7791;47.246;9.648;2023-06-10T15:29:34;5.20;;;4.60;;
15385;SDS011;7791;47.246;9.648;2023-06-10T15:32:09;6.25;;;4.90;;
15385;SDS011;7791;47.246;9.648;2023-06-10T15:34:48;4.40;;;4.00;;
15385;SDS011;7791;47.246;9.648;2023-06-10T15:37:25;5.60;;;4.60;;
15385;SDS011;7791;47.246;9.648;2023-06-10T15:39:58;6.13;;;4.60;;
15385;SDS011;7791;47.246;9.648;2023-06-10T15:48:16;5.78;;;4.03;;
15385;SDS011;7791;47.246;9.648;2023-06-10T15:50:48;6.03;;;3.97;;
15385;SDS011;7791;47.246;9.648;2023-06-10T15:53:23;5.30;;;4.18;;
15385;SDS011;7791;47.246;9.648;2023-06-10T15:55:56;4.70;;;3.55;;
15385;SDS011;7791;47.246;9.648;2023-06-10T15:58:34;4.82;;;4.32;;
15385;SDS011;7791;47.246;9.648;2023-06-10T16:01:01;6.15;;;4.45;;
15385;SDS011;7791;47.246;9.648;2023-06-10T16:03:35;5.22;;;4.53;;
15385;SDS011;7791;47.246;9.648;2023-06-10T16:06:08;5.43;;;4.70;;
15385;SDS011;7791;47.246;9.648;2023-06-10T16:08:40;7.80;;;4.97;;
15385;SDS011;7791;47.246;9.648;2023-06-10T16:11:13;4.95;;;4.43;;
15385;SDS011;7791;47.246;9.648;2023-06-10T16:13:43;5.57;;;4.50;;
15385;SDS011;7791;47.246;9.648;2023-06-10T16:16:23;6.03;;;4.55;;
15385;SDS011;7791;47.246;9.648;2023-06-10T16:18:59;7.38;;;5.05;;
15385;SDS011;7791;47.246;9.648;2023-06-10T16:21:24;6.13;;;4.50;;
15385;SDS011;7791;47.246;9.648;2023-06-10T16:24:05;7.70;;;4.85;;
15385;SDS011;7791;47.246;9.648;2023-06-10T16:26:34;6.30;;;4.68;;
15385;SDS011;7791;47.246;9.648;2023-06-10T16:29:07;5.90;;;4.65;;
15385;SDS011;7791;47.246;9.648;2023-06-10T16:31:37;5.55;;;4.43;;
15385;SDS011;7791;47.246;9.648;2023-06-10T16:34:25;7.65;;;4.68;;
15385;SDS011;7791;47.246;9.648;2023-06-10T16:37:04;9.50;;;4.60;;
15385;SDS011;7791;47.246;9.648;2023-06-10T16:39:41;5.43;;;4.93;;
15385;SDS011;7791;47.246;9.648;2023-06-10T16:42:11;14.05;;;5.28;;
15385;SDS011;7791;47.246;9.648;2023-06-10T16:44:56;7.78;;;5.30;;
15385;SDS011;7791;47.246;9.648;2023-06-10T16:47:31;5.60;;;5.10;;
15385;SDS011;7791;47.246;9.648;2023-06-10T16:50:05;6.47;;;4.70;;